createdAt,value
2019-02-28T00:04:23.585Z,7.63
2019-02-28T00:10:18.584Z,7.77
2019-02-28T00:16:13.640Z,7.72
2019-02-28T00:22:11.309Z,7.17
2019-02-28T00:28:03.604Z,6.69
2019-02-28T00:33:58.622Z,7.26
2019-02-28T00:39:53.634Z,6.1
2019-02-28T00:45:48.605Z,7.18
2019-02-28T00:51:43.622Z,7.41
2019-02-28T00:57:38.619Z,6.29
2019-02-28T01:03:33.625Z,6.55
2019-02-28T01:09:30.057Z,6.35
2019-02-28T01:15:23.639Z,6.93
2019-02-28T01:21:23.603Z,6.46
2019-02-28T01:27:13.649Z,6.35
2019-02-28T01:33:08.695Z,6.92
2019-02-28T01:39:03.663Z,6.35
2019-02-28T01:44:58.663Z,7
2019-02-28T01:50:53.695Z,5.95
2019-02-28T01:56:48.666Z,6.39
2019-02-28T02:02:43.700Z,6.79
2019-02-28T02:08:38.706Z,5.96
2019-02-28T02:14:33.667Z,6.85
2019-02-28T02:20:28.705Z,5.91
2019-02-28T02:26:23.708Z,6.62
2019-02-28T02:32:18.740Z,6.36
2019-02-28T02:38:13.694Z,9.95
2019-02-28T02:44:08.732Z,14.38
2019-02-28T02:50:03.714Z,14.56
2019-02-28T02:56:03.440Z,15.36
2019-02-28T03:01:56.116Z,12.95
2019-02-28T03:07:48.734Z,12.06
2019-02-28T03:13:44.156Z,11.51
2019-02-28T03:19:38.781Z,11
2019-02-28T03:25:33.771Z,11.17
2019-02-28T03:31:28.797Z,9.68
2019-02-28T03:37:23.751Z,9.6
2019-02-28T03:43:18.785Z,8.57
2019-02-28T03:49:13.778Z,8.82
2019-02-28T03:55:08.791Z,8.15
2019-02-28T04:01:08.541Z,8.16
2019-02-28T04:06:58.802Z,7.47
2019-02-28T04:12:53.779Z,7.63
2019-02-28T04:18:48.856Z,7.3
2019-02-28T04:24:46.199Z,7.15
2019-02-28T04:30:42.158Z,7.47
2019-02-28T04:36:35.675Z,7.63
2019-02-28T04:42:28.848Z,7.15
2019-02-28T04:48:23.853Z,7.38
2019-02-28T04:54:18.822Z,6.31
2019-02-28T05:00:13.866Z,6.9
2019-02-28T05:06:08.847Z,6.87
2019-02-28T05:12:05.213Z,6.88
2019-02-28T05:17:58.861Z,6.39
2019-02-28T05:23:53.890Z,5.85
2019-02-28T05:29:48.871Z,7.91
2019-02-28T05:35:43.865Z,6.51
2019-02-28T05:41:38.893Z,6.65
2019-02-28T05:47:41.493Z,7.88
2019-02-28T05:53:28.893Z,6.78
2019-02-28T05:59:27.153Z,7
2019-02-28T06:05:18.882Z,7.85
2019-02-28T06:11:15.334Z,7.56
2019-02-28T06:17:08.910Z,6.67
2019-02-28T06:23:06.241Z,7.24
2019-02-28T06:28:58.918Z,7.76
2019-02-28T06:34:53.899Z,8.23
2019-02-28T06:40:48.898Z,8.1
2019-02-28T06:46:44.016Z,8.17
2019-02-28T06:52:38.930Z,8.51
2019-02-28T06:58:34.022Z,7.82
2019-02-28T07:04:28.961Z,8.83
2019-02-28T07:10:23.952Z,9.6
2019-02-28T07:16:18.976Z,10.03
2019-02-28T07:22:19.113Z,9.76
2019-02-28T07:28:08.980Z,9.2
2019-02-28T07:34:03.968Z,9.7
2019-02-28T07:39:59.024Z,9.74
2019-02-28T07:45:53.971Z,11.18
2019-02-28T07:51:48.964Z,11.15
2019-02-28T07:57:44.005Z,10.99
2019-02-28T08:03:38.988Z,12.79
2019-02-28T08:09:36.719Z,12.34
2019-02-28T08:15:28.983Z,13.67
2019-02-28T08:21:24.004Z,11.54
2019-02-28T08:27:19.026Z,12.31
2019-02-28T08:33:16.243Z,13.77
2019-02-28T08:39:09.757Z,14.58
2019-02-28T08:45:04.036Z,15.16
2019-02-28T08:50:59.085Z,15.89
2019-02-28T08:56:54.057Z,16.75
2019-02-28T09:02:52.113Z,14.64
2019-02-28T09:08:44.066Z,16.18
2019-02-28T09:14:39.042Z,18.81
2019-02-28T09:20:34.075Z,16.52
2019-02-28T09:26:31.209Z,19.96
2019-02-28T09:32:24.054Z,19.64
2019-02-28T09:38:19.079Z,20.26
2019-02-28T09:44:14.097Z,23.46
2019-02-28T09:50:09.061Z,22.85
2019-02-28T09:56:08.818Z,29.23
2019-02-28T10:02:01.506Z,29.69
2019-02-28T10:07:54.136Z,33.74
2019-02-28T10:13:49.440Z,36.44
2019-02-28T10:19:45.819Z,35.46
2019-02-28T10:25:43.200Z,33.25
2019-02-28T10:31:36.391Z,30.59
2019-02-28T10:37:29.112Z,33.08
2019-02-28T10:43:24.155Z,30.16
2019-02-28T10:49:21.022Z,28.23
2019-02-28T10:55:14.136Z,29.63
2019-02-28T11:01:09.148Z,28.75
2019-02-28T11:07:04.141Z,28.38
2019-02-28T11:12:59.143Z,28.21
2019-02-28T11:18:54.143Z,30.78
2019-02-28T11:24:49.158Z,31.5
2019-02-28T11:30:44.613Z,32.45
2019-02-28T11:36:39.176Z,35.29
2019-02-28T11:42:34.167Z,37.76
2019-02-28T11:48:29.179Z,37.95
2019-02-28T11:54:24.211Z,36.41
2019-02-28T12:00:19.183Z,38.57
2019-02-28T12:06:14.178Z,36.74
2019-02-28T12:12:10.376Z,39.22
2019-02-28T12:18:04.865Z,36.51
2019-02-28T12:24:00.592Z,36.51
2019-02-28T12:29:54.218Z,39.79
2019-02-28T12:35:49.228Z,34.08
2019-02-28T12:41:44.235Z,35.45
2019-02-28T12:47:41.498Z,34.77
2019-02-28T12:53:34.246Z,33.68
2019-02-28T12:59:29.270Z,34
2019-02-28T13:05:24.341Z,35.3
2019-02-28T13:11:19.292Z,33.87
2019-02-28T13:17:16.074Z,33.2
2019-02-28T13:23:09.272Z,32.95
2019-02-28T13:29:04.259Z,42.9
2019-02-28T13:35:02.834Z,34.36
2019-02-28T13:40:55.179Z,30.76
2019-02-28T13:46:49.278Z,30.33
2019-02-28T13:52:44.311Z,32.03
2019-02-28T13:58:39.322Z,30.62
2019-02-28T14:04:34.304Z,31.7
2019-02-28T14:10:29.482Z,31.05
2019-02-28T14:16:26.769Z,29.62
2019-02-28T14:22:19.328Z,29.06
2019-02-28T14:28:14.349Z,27.76
2019-02-28T14:34:09.320Z,27.39
2019-02-28T14:40:04.348Z,27.46
2019-02-28T14:45:59.333Z,26.47
2019-02-28T14:51:54.367Z,26.01
2019-02-28T14:57:49.724Z,25.37
2019-02-28T15:03:44.349Z,23.4
2019-02-28T15:09:39.351Z,20.68
2019-02-28T15:15:36.020Z,18.18
2019-02-28T15:21:29.358Z,16.7
2019-02-28T15:27:24.384Z,16.76
2019-02-28T15:33:19.381Z,13.08
2019-02-28T15:39:17.017Z,10.59
2019-02-28T15:45:09.395Z,9.82
2019-02-28T15:51:04.400Z,8.82
2019-02-28T15:56:59.464Z,9.69
2019-02-28T16:02:54.414Z,9.57
2019-02-28T16:08:49.416Z,9.14
2019-02-28T16:14:44.411Z,8.3
2019-02-28T16:20:39.459Z,8.82
2019-02-28T16:26:34.425Z,6.91
2019-02-28T16:32:30.030Z,8.65
2019-02-28T16:38:24.453Z,7.73
2019-02-28T16:44:19.538Z,8.74
2019-02-28T16:50:15.267Z,8.39
2019-02-28T16:56:09.512Z,8.36
2019-02-28T17:02:04.455Z,9.07
2019-02-28T17:07:59.471Z,8.43
2019-02-28T17:13:54.509Z,8.18
2019-02-28T17:19:49.471Z,8.3
2019-02-28T17:25:44.491Z,9.09
2019-02-28T17:31:39.513Z,10.3
2019-02-28T17:37:34.495Z,9.79
2019-02-28T17:43:29.501Z,14.19
2019-02-28T17:49:26.361Z,13.23
2019-02-28T17:55:19.575Z,12
2019-02-28T18:01:14.521Z,11.27
2019-02-28T18:07:09.605Z,17
2019-02-28T18:13:04.535Z,18.65
2019-02-28T18:18:59.527Z,14.1
2019-02-28T18:24:54.549Z,15.19
2019-02-28T18:30:49.547Z,14.18
2019-02-28T18:36:44.551Z,15.51
2019-02-28T18:42:39.565Z,13.49
2019-02-28T18:48:34.603Z,16.39
2019-02-28T18:54:29.636Z,16.46
2019-02-28T19:00:24.598Z,17.02
2019-02-28T19:06:19.620Z,15.4
2019-02-28T19:12:14.593Z,18.46
2019-02-28T19:18:09.580Z,14.34
2019-02-28T19:24:04.602Z,14.9
2019-02-28T19:29:59.610Z,14.92
2019-02-28T19:35:54.610Z,14.74
2019-02-28T19:41:49.609Z,14.45
2019-02-28T19:47:44.607Z,14.84
2019-02-28T19:53:39.623Z,14.62
2019-02-28T19:59:34.659Z,14.11
2019-02-28T20:05:29.675Z,14.51
2019-02-28T20:11:24.655Z,14.28
2019-02-28T20:17:19.692Z,14.6
2019-02-28T20:23:14.698Z,14.82
2019-02-28T20:29:09.662Z,13.96
2019-02-28T20:35:04.700Z,13.39
2019-02-28T20:40:59.661Z,13.78
2019-02-28T20:46:54.696Z,13.82
2019-02-28T20:52:49.669Z,15.33
2019-02-28T20:58:44.685Z,16.4
2019-02-28T21:04:39.685Z,15.99
2019-02-28T21:10:34.717Z,16.78
2019-02-28T21:16:29.684Z,17.1
2019-02-28T21:22:24.724Z,17.56
2019-02-28T21:28:19.718Z,16.7
2019-02-28T21:34:14.732Z,16.57
2019-02-28T21:40:09.719Z,16.93
2019-02-28T21:46:04.738Z,17.64
2019-02-28T21:51:59.758Z,19.49
2019-02-28T21:57:54.738Z,16.79
2019-02-28T22:03:49.767Z,14.63
2019-02-28T22:09:44.759Z,14.63
2019-02-28T22:15:39.726Z,12.69
2019-02-28T22:21:34.768Z,12.9
2019-02-28T22:27:29.785Z,12.19
2019-02-28T22:33:24.769Z,12.12
2019-02-28T22:39:19.762Z,13.58
2019-02-28T22:45:14.791Z,12.4
2019-02-28T22:51:09.794Z,14.25
2019-02-28T22:57:04.760Z,13.02
2019-02-28T23:02:59.821Z,13.1
2019-02-28T23:08:54.791Z,12.1
2019-02-28T23:14:49.801Z,13.04
2019-02-28T23:20:44.793Z,12.84
2019-02-28T23:26:39.810Z,13.3
2019-02-28T23:32:34.820Z,14.9
2019-02-28T23:38:29.824Z,14.05
2019-02-28T23:44:24.826Z,14.96
2019-02-28T23:50:19.814Z,14.5
2019-02-28T23:56:14.826Z,16.18
